createdAt,value
2023-06-19T00:01:10.550Z,23.82
2023-06-19T00:03:37.697Z,23.49
2023-06-19T00:06:06.762Z,23.54
2023-06-19T00:08:33.691Z,23.62
2023-06-19T00:11:00.497Z,23.63
2023-06-19T00:13:27.439Z,23.55
2023-06-19T00:15:54.447Z,23.61
2023-06-19T00:18:21.321Z,23.51
2023-06-19T00:20:48.520Z,23.63
2023-06-19T00:23:18.175Z,23.58
2023-06-19T00:25:45.779Z,23.58
2023-06-19T00:28:16.113Z,23.51
2023-06-19T00:30:43.151Z,23.46
2023-06-19T00:33:10.640Z,23.43
2023-06-19T00:35:37.827Z,23.65
2023-06-19T00:38:06.554Z,23.62
2023-06-19T00:40:35.163Z,23.45
2023-06-19T00:43:02.335Z,23.40
2023-06-19T00:45:29.646Z,23.48
2023-06-19T00:47:58.702Z,23.55
2023-06-19T00:50:27.037Z,23.44
2023-06-19T00:52:54.379Z,23.56
2023-06-19T00:55:23.145Z,23.53
2023-06-19T00:57:51.271Z,23.48
2023-06-19T01:00:19.134Z,23.45
2023-06-19T01:02:48.230Z,23.44
2023-06-19T01:05:16.352Z,23.58
2023-06-19T01:07:46.942Z,23.70
2023-06-19T01:10:21.413Z,23.77
2023-06-19T01:13:01.503Z,23.70
2023-06-19T01:15:28.643Z,23.61
2023-06-19T01:17:57.586Z,23.64
2023-06-19T01:20:25.961Z,23.68
2023-06-19T01:22:53.201Z,23.65
2023-06-19T01:25:20.091Z,23.50
2023-06-19T01:27:48.332Z,23.64
2023-06-19T01:30:15.510Z,23.56
2023-06-19T01:32:42.386Z,23.75
2023-06-19T01:35:10.920Z,23.56
2023-06-19T01:37:39.433Z,23.47
2023-06-19T01:40:10.979Z,23.35
2023-06-19T01:42:42.221Z,23.38
2023-06-19T01:45:09.804Z,23.35
2023-06-19T01:47:37.007Z,23.35
2023-06-19T01:50:04.110Z,23.53
2023-06-19T01:52:31.283Z,23.57
2023-06-19T01:54:58.160Z,23.50
2023-06-19T01:57:25.228Z,23.52
2023-06-19T01:59:52.074Z,23.60
2023-06-19T02:02:18.929Z,23.62
2023-06-19T02:04:45.790Z,23.63
2023-06-19T02:07:12.778Z,23.68
2023-06-19T02:09:40.600Z,23.62
2023-06-19T02:12:08.407Z,23.65
2023-06-19T02:14:35.329Z,23.61
2023-06-19T02:17:02.173Z,23.52
2023-06-19T02:19:29.078Z,23.42
2023-06-19T02:21:56.076Z,23.50
2023-06-19T02:24:26.474Z,23.48
2023-06-19T02:26:53.860Z,23.42
2023-06-19T02:29:21.349Z,23.39
2023-06-19T02:31:48.258Z,23.34
2023-06-19T02:34:15.268Z,23.41
2023-06-19T02:36:42.232Z,23.51
2023-06-19T02:39:10.298Z,23.37
2023-06-19T02:41:39.329Z,23.39
2023-06-19T02:44:06.250Z,23.36
2023-06-19T02:46:33.632Z,23.39
2023-06-19T02:49:02.017Z,23.53
2023-06-19T02:51:28.954Z,23.46
2023-06-19T02:53:56.119Z,23.34
2023-06-19T02:56:24.173Z,23.49
2023-06-19T02:58:51.047Z,23.43
2023-06-19T03:01:18.426Z,23.37
2023-06-19T03:03:47.807Z,23.40
2023-06-19T03:06:14.858Z,23.30
2023-06-19T03:08:41.986Z,23.35
2023-06-19T03:11:08.837Z,23.22
2023-06-19T03:13:51.374Z,23.24
2023-06-19T03:16:20.524Z,23.24
2023-06-19T03:18:51.745Z,23.26
2023-06-19T03:21:21.430Z,23.22
2023-06-19T03:23:50.024Z,23.18
2023-06-19T03:26:22.962Z,23.07
2023-06-19T03:28:49.817Z,23.26
2023-06-19T03:31:16.971Z,23.47
2023-06-19T03:33:44.474Z,23.27
2023-06-19T03:36:11.851Z,23.11
2023-06-19T03:38:49.300Z,23.12
2023-06-19T03:41:19.774Z,22.94
2023-06-19T03:43:47.670Z,23.10
2023-06-19T03:46:15.305Z,23.08
2023-06-19T03:48:42.313Z,23.17
2023-06-19T03:51:09.297Z,23.24
2023-06-19T03:53:36.171Z,23.20
2023-06-19T03:56:03.207Z,23.21
2023-06-19T03:58:30.203Z,23.29
2023-06-19T04:00:57.072Z,23.32
2023-06-19T04:03:24.287Z,23.32
2023-06-19T04:05:51.759Z,23.37
2023-06-19T04:08:18.805Z,23.36
2023-06-19T04:10:45.747Z,23.21
2023-06-19T04:13:13.109Z,23.21
2023-06-19T04:15:40.373Z,23.20
2023-06-19T04:18:07.337Z,23.41
2023-06-19T04:20:35.152Z,23.13
2023-06-19T04:23:02.119Z,23.20
2023-06-19T04:25:29.192Z,23.32
2023-06-19T04:27:57.147Z,23.12
2023-06-19T04:30:24.401Z,23.11
2023-06-19T04:32:51.562Z,23.25
2023-06-19T04:35:19.653Z,23.18
2023-06-19T04:40:13.350Z,23.33
2023-06-19T04:42:40.162Z,23.49
2023-06-19T04:45:10.823Z,23.65
2023-06-19T04:47:51.634Z,24.16
2023-06-19T04:50:19.867Z,23.94
2023-06-19T04:52:46.843Z,23.72
2023-06-19T04:55:13.704Z,23.90
2023-06-19T04:57:40.671Z,23.84
2023-06-19T05:00:08.313Z,23.67
2023-06-19T05:02:35.669Z,23.74
2023-06-19T05:05:04.663Z,23.64
2023-06-19T05:07:34.410Z,23.48
2023-06-19T05:10:01.433Z,23.45
2023-06-19T05:12:28.326Z,23.42
2023-06-19T05:14:55.243Z,23.61
2023-06-19T05:17:22.289Z,23.60
2023-06-19T05:19:49.742Z,23.48
2023-06-19T05:22:19.293Z,23.66
2023-06-19T05:24:46.283Z,23.75
2023-06-19T05:27:13.167Z,23.78
2023-06-19T05:29:40.149Z,23.90
2023-06-19T05:32:07.416Z,23.81
2023-06-19T05:34:34.366Z,24.03
2023-06-19T05:37:04.687Z,24.24
2023-06-19T05:39:31.698Z,24.51
2023-06-19T05:41:58.712Z,24.75
2023-06-19T05:44:25.554Z,25.06
2023-06-19T05:46:52.374Z,25.19
2023-06-19T05:49:19.363Z,25.20
2023-06-19T05:51:46.328Z,25.35
2023-06-19T05:54:13.150Z,25.40
2023-06-19T05:56:40.779Z,25.29
2023-06-19T05:59:07.606Z,24.95
2023-06-19T06:01:34.551Z,25.37
2023-06-19T06:04:02.838Z,25.65
2023-06-19T06:06:29.818Z,25.62
2023-06-19T06:08:56.848Z,25.71
2023-06-19T06:11:24.376Z,25.54
2023-06-19T06:13:51.404Z,25.74
2023-06-19T06:16:18.380Z,25.42
2023-06-19T06:18:46.688Z,25.27
2023-06-19T06:21:14.385Z,25.56
2023-06-19T06:23:46.349Z,25.81
2023-06-19T06:26:13.494Z,26.11
2023-06-19T06:28:40.750Z,26.38
2023-06-19T06:31:08.281Z,26.23
2023-06-19T06:33:35.315Z,26.49
2023-06-19T06:36:02.607Z,26.60
2023-06-19T06:38:29.556Z,26.60
2023-06-19T06:40:56.538Z,26.55
2023-06-19T06:43:23.422Z,26.77
2023-06-19T06:45:50.331Z,26.80
2023-06-19T06:48:18.034Z,26.64
2023-06-19T06:50:44.938Z,26.79
2023-06-19T06:53:11.861Z,26.89
2023-06-19T06:55:38.722Z,27.01
2023-06-19T06:58:06.481Z,27.19
2023-06-19T07:00:33.635Z,26.93
2023-06-19T07:03:00.865Z,26.67
2023-06-19T07:05:30.165Z,26.03
2023-06-19T07:07:57.156Z,26.03
2023-06-19T07:10:25.141Z,26.04
2023-06-19T07:12:52.648Z,26.25
2023-06-19T07:15:20.587Z,25.80
2023-06-19T07:17:48.380Z,26.40
2023-06-19T07:20:16.011Z,26.91
2023-06-19T07:22:43.998Z,27.15
2023-06-19T07:25:12.358Z,27.05
2023-06-19T07:27:41.578Z,26.92
2023-06-19T07:30:09.540Z,26.70
2023-06-19T07:32:36.464Z,26.46
2023-06-19T07:35:03.643Z,26.68
2023-06-19T07:37:30.535Z,26.57
2023-06-19T07:39:57.504Z,26.27
2023-06-19T07:42:25.043Z,26.08
2023-06-19T07:44:52.078Z,26.61
2023-06-19T07:47:19.887Z,26.25
2023-06-19T07:49:46.819Z,26.12
2023-06-19T07:52:14.728Z,26.17
2023-06-19T07:54:58.040Z,26.31
2023-06-19T07:57:26.703Z,26.74
2023-06-19T07:59:55.738Z,26.72
2023-06-19T08:02:22.910Z,26.69
2023-06-19T08:04:50.089Z,26.29
2023-06-19T08:07:17.569Z,26.24
2023-06-19T08:09:44.511Z,26.18
2023-06-19T08:12:11.440Z,26.16
2023-06-19T08:14:39.706Z,26.15
2023-06-19T08:17:07.402Z,26.28
2023-06-19T08:19:34.630Z,26.21
2023-06-19T08:22:01.483Z,26.32
2023-06-19T08:24:28.775Z,26.36
2023-06-19T08:26:55.695Z,26.19
2023-06-19T08:29:23.840Z,26.31
2023-06-19T08:31:51.002Z,26.16
2023-06-19T08:34:17.889Z,26.20
2023-06-19T08:36:44.939Z,26.06
2023-06-19T08:39:11.969Z,26.16
2023-06-19T08:41:39.708Z,25.91
2023-06-19T08:44:06.927Z,25.90
2023-06-19T08:46:35.552Z,25.88
2023-06-19T08:49:02.950Z,25.86
2023-06-19T08:51:33.695Z,25.74
2023-06-19T08:54:06.343Z,25.74
2023-06-19T08:56:35.447Z,25.78
2023-06-19T08:59:10.419Z,25.77
2023-06-19T09:01:38.015Z,25.67
2023-06-19T09:04:13.165Z,25.89
2023-06-19T09:07:08.631Z,25.90
2023-06-19T09:09:53.805Z,25.97
2023-06-19T09:12:20.747Z,26.17
2023-06-19T09:15:00.700Z,26.35
2023-06-19T09:17:28.085Z,26.19
2023-06-19T09:19:59.061Z,26.35
2023-06-19T09:22:26.501Z,26.62
2023-06-19T09:24:53.595Z,26.41
2023-06-19T09:27:21.109Z,26.51
2023-06-19T09:29:49.790Z,26.58
2023-06-19T09:32:23.393Z,26.52
2023-06-19T09:34:57.015Z,26.57
2023-06-19T09:37:29.068Z,26.30
2023-06-19T09:40:12.221Z,26.53
2023-06-19T09:42:41.336Z,26.77
2023-06-19T09:45:19.999Z,26.85
2023-06-19T09:47:50.363Z,27.06
2023-06-19T09:50:18.801Z,27.23
2023-06-19T09:52:52.656Z,27.36
2023-06-19T09:55:20.668Z,27.38
2023-06-19T09:57:49.735Z,27.18
2023-06-19T10:00:17.790Z,27.53
2023-06-19T10:02:46.605Z,28.05
2023-06-19T10:05:15.246Z,28.46
2023-06-19T10:07:45.638Z,28.90
2023-06-19T10:10:35.508Z,28.69
2023-06-19T10:13:16.886Z,29.00
2023-06-19T10:15:45.780Z,28.62
2023-06-19T10:18:21.868Z,28.62
2023-06-19T10:20:49.693Z,28.57
2023-06-19T10:23:22.581Z,29.30
2023-06-19T10:25:50.724Z,29.09
2023-06-19T10:28:29.131Z,28.89
2023-06-19T10:31:01.144Z,28.46
2023-06-19T10:33:35.804Z,28.90
2023-06-19T10:36:15.401Z,29.20
2023-06-19T10:38:44.619Z,29.29
2023-06-19T10:41:22.469Z,29.09
2023-06-19T10:43:58.401Z,29.49
2023-06-19T10:46:26.329Z,29.86
2023-06-19T10:48:57.752Z,30.10
2023-06-19T10:51:25.173Z,29.90
2023-06-19T10:53:55.261Z,29.31
2023-06-19T10:56:23.369Z,29.28
2023-06-19T10:59:01.093Z,29.37
2023-06-19T11:01:39.503Z,29.95
2023-06-19T11:04:11.625Z,29.71
2023-06-19T11:06:40.607Z,29.70
2023-06-19T11:09:09.245Z,29.90
2023-06-19T11:11:54.255Z,29.87
2023-06-19T11:14:21.144Z,29.43
2023-06-19T11:16:49.100Z,29.48
2023-06-19T11:19:31.563Z,30.05
2023-06-19T11:21:58.797Z,30.29
2023-06-19T11:24:25.938Z,30.12
2023-06-19T11:26:53.488Z,29.52
2023-06-19T11:29:26.122Z,29.51
2023-06-19T11:32:09.982Z,29.96
2023-06-19T11:34:40.885Z,30.56
2023-06-19T11:37:15.410Z,30.69
2023-06-19T11:39:45.452Z,30.22
2023-06-19T11:42:13.019Z,30.15
2023-06-19T11:45:04.906Z,30.06
2023-06-19T11:47:34.723Z,30.44
2023-06-19T11:50:01.824Z,30.09
2023-06-19T11:52:30.197Z,29.65
2023-06-19T11:54:58.164Z,29.50
2023-06-19T11:57:25.135Z,29.50
2023-06-19T11:59:52.025Z,29.48
2023-06-19T12:02:18.960Z,29.29
2023-06-19T12:04:46.100Z,29.29
2023-06-19T12:07:13.165Z,29.13
2023-06-19T12:09:40.557Z,29.28
2023-06-19T12:12:08.431Z,29.21
2023-06-19T12:14:35.451Z,29.25
2023-06-19T12:17:02.373Z,29.25
2023-06-19T12:19:29.356Z,29.28
2023-06-19T12:21:56.365Z,29.57
2023-06-19T12:24:23.454Z,29.53
2023-06-19T12:26:50.296Z,30.08
2023-06-19T12:29:17.129Z,30.16
2023-06-19T12:31:45.093Z,30.21
2023-06-19T12:34:28.638Z,30.30
2023-06-19T12:36:58.571Z,30.60
2023-06-19T12:39:26.196Z,30.61
2023-06-19T12:41:53.588Z,30.68
2023-06-19T12:44:23.050Z,31.06
2023-06-19T12:46:50.171Z,31.07
2023-06-19T12:49:17.293Z,31.25
2023-06-19T12:51:44.254Z,31.17
2023-06-19T12:54:11.124Z,31.08
2023-06-19T12:56:38.048Z,30.41
2023-06-19T12:59:04.995Z,30.15
2023-06-19T13:01:31.995Z,30.20
2023-06-19T13:03:58.884Z,29.98
2023-06-19T13:06:26.350Z,29.76
2023-06-19T13:08:53.352Z,29.92
2023-06-19T13:11:20.280Z,30.03
2023-06-19T13:13:47.215Z,30.11
2023-06-19T13:16:15.213Z,30.06
2023-06-19T13:18:42.278Z,30.71
2023-06-19T13:21:09.260Z,30.84
2023-06-19T13:23:36.200Z,31.16
2023-06-19T13:26:03.120Z,31.44
2023-06-19T13:28:30.084Z,31.49
2023-06-19T13:30:56.975Z,31.57
2023-06-19T13:33:23.845Z,31.70
2023-06-19T13:35:50.730Z,31.77
2023-06-19T13:38:18.399Z,31.87
2023-06-19T13:40:45.712Z,31.73
2023-06-19T13:43:12.791Z,31.71
2023-06-19T13:45:39.989Z,31.79
2023-06-19T13:48:07.774Z,31.83
2023-06-19T13:50:35.085Z,31.84
2023-06-19T13:53:03.081Z,31.51
2023-06-19T13:55:29.996Z,31.12
2023-06-19T13:57:56.899Z,31.32
2023-06-19T14:00:24.163Z,31.07
2023-06-19T14:02:51.410Z,30.85
2023-06-19T14:05:18.690Z,30.79
2023-06-19T14:07:46.072Z,30.88
2023-06-19T14:10:13.060Z,30.91
2023-06-19T14:12:39.948Z,30.51
2023-06-19T14:15:09.358Z,30.20
2023-06-19T14:17:36.529Z,30.13
2023-06-19T14:20:05.764Z,29.76
2023-06-19T14:22:33.024Z,29.58
2023-06-19T14:25:03.031Z,29.52
2023-06-19T14:27:30.469Z,29.42
2023-06-19T14:29:57.665Z,29.32
2023-06-19T14:32:25.269Z,29.39
2023-06-19T14:34:52.339Z,29.43
2023-06-19T14:37:19.408Z,29.33
2023-06-19T14:39:46.684Z,28.94
2023-06-19T14:42:13.657Z,29.00
2023-06-19T14:44:40.591Z,28.82
2023-06-19T14:47:08.026Z,28.72
2023-06-19T14:49:34.931Z,28.55
2023-06-19T14:52:02.067Z,28.28
2023-06-19T14:54:29.095Z,28.19
2023-06-19T14:56:55.961Z,28.11
2023-06-19T14:59:22.987Z,28.05
2023-06-19T15:01:49.952Z,27.82
2023-06-19T15:04:17.104Z,27.57
2023-06-19T15:06:44.157Z,27.25
2023-06-19T15:09:11.188Z,26.87
2023-06-19T15:11:38.120Z,26.73
2023-06-19T15:14:04.998Z,26.60
2023-06-19T15:16:31.905Z,26.21
2023-06-19T15:18:58.961Z,25.98
2023-06-19T15:21:25.835Z,25.83
2023-06-19T15:23:59.363Z,26.07
2023-06-19T15:26:26.881Z,25.71
2023-06-19T15:28:54.976Z,25.27
2023-06-19T15:31:25.172Z,25.30
2023-06-19T15:33:52.253Z,25.27
2023-06-19T15:36:20.279Z,25.22
2023-06-19T15:38:47.170Z,25.01
2023-06-19T15:41:14.398Z,25.02
2023-06-19T15:43:43.144Z,25.39
2023-06-19T15:46:10.352Z,25.14
2023-06-19T15:48:37.352Z,25.09
2023-06-19T15:51:04.613Z,25.31
2023-06-19T15:53:31.499Z,25.54
2023-06-19T15:55:59.326Z,25.54
2023-06-19T15:58:26.338Z,25.87
2023-06-19T16:00:54.293Z,25.91
2023-06-19T16:03:24.548Z,26.15
2023-06-19T16:08:29.151Z,25.87
2023-06-19T16:10:56.100Z,25.98
2023-06-19T16:13:23.080Z,25.82
2023-06-19T16:15:50.033Z,25.89
2023-06-19T16:18:16.931Z,25.93
2023-06-19T16:20:43.995Z,26.05
2023-06-19T16:23:10.873Z,26.04
2023-06-19T16:25:37.762Z,26.17
2023-06-19T16:28:04.822Z,26.23
2023-06-19T16:30:31.856Z,26.00
2023-06-19T16:32:58.773Z,26.10
2023-06-19T16:35:25.771Z,25.84
2023-06-19T16:37:57.197Z,26.00
2023-06-19T16:40:26.472Z,25.80
2023-06-19T16:42:53.981Z,25.70
2023-06-19T16:45:23.273Z,25.87
2023-06-19T16:47:50.305Z,25.82
2023-06-19T16:50:17.231Z,25.92
2023-06-19T16:52:44.649Z,25.78
2023-06-19T16:55:11.613Z,25.91
2023-06-19T16:57:38.525Z,25.92
2023-06-19T17:00:06.297Z,25.80
2023-06-19T17:02:33.326Z,25.84
2023-06-19T17:05:00.324Z,25.84
2023-06-19T17:07:27.224Z,25.93
2023-06-19T17:09:54.064Z,25.89
2023-06-19T17:12:20.912Z,26.21
2023-06-19T17:14:47.768Z,25.96
2023-06-19T17:17:14.587Z,26.12
2023-06-19T17:19:41.463Z,26.18
2023-06-19T17:22:08.313Z,25.99
2023-06-19T17:24:35.276Z,26.03
2023-06-19T17:27:02.249Z,26.07
2023-06-19T17:29:29.130Z,25.54
2023-06-19T17:31:57.923Z,25.44
2023-06-19T17:34:24.920Z,25.51
2023-06-19T17:36:51.997Z,25.57
2023-06-19T17:39:18.932Z,25.56
2023-06-19T17:41:45.891Z,25.65
2023-06-19T17:44:12.800Z,25.44
2023-06-19T17:46:39.866Z,25.64
2023-06-19T17:49:07.643Z,25.54
2023-06-19T17:51:35.078Z,25.38
2023-06-19T17:54:05.445Z,25.51
2023-06-19T17:56:33.181Z,25.57
2023-06-19T17:59:00.184Z,25.49
2023-06-19T18:01:27.122Z,25.56
2023-06-19T18:03:54.326Z,25.53
2023-06-19T18:06:22.180Z,25.54
2023-06-19T18:08:49.271Z,25.41
2023-06-19T18:11:16.288Z,25.45
2023-06-19T18:13:43.310Z,25.34
2023-06-19T18:16:12.419Z,25.47
2023-06-19T18:18:40.432Z,25.08
2023-06-19T18:21:07.434Z,25.27
2023-06-19T18:23:34.355Z,25.05
2023-06-19T18:26:01.411Z,24.76
2023-06-19T18:28:28.348Z,24.50
2023-06-19T18:30:55.276Z,24.93
2023-06-19T18:33:22.158Z,25.28
2023-06-19T18:35:49.028Z,25.21
2023-06-19T18:38:16.009Z,24.95
2023-06-19T18:40:43.119Z,24.80
2023-06-19T18:43:10.037Z,24.81
2023-06-19T18:45:37.463Z,24.52
2023-06-19T18:48:04.560Z,24.45
2023-06-19T18:50:31.757Z,24.20
2023-06-19T18:52:58.705Z,24.05
2023-06-19T18:55:25.916Z,24.27
2023-06-19T18:57:52.774Z,24.42
2023-06-19T19:00:21.045Z,24.39
2023-06-19T19:02:51.186Z,24.49
2023-06-19T19:05:18.357Z,24.54
2023-06-19T19:07:45.318Z,24.51
2023-06-19T19:10:12.366Z,24.59
2023-06-19T19:12:39.329Z,24.56
2023-06-19T19:15:07.100Z,24.69
2023-06-19T19:17:34.156Z,24.59
2023-06-19T19:20:04.829Z,24.57
2023-06-19T19:22:31.848Z,24.57
2023-06-19T19:24:58.820Z,24.52
2023-06-19T19:27:25.820Z,24.23
2023-06-19T19:29:52.914Z,24.19
2023-06-19T19:32:22.452Z,24.32
2023-06-19T19:34:49.562Z,24.40
2023-06-19T19:37:16.472Z,24.46
2023-06-19T19:39:43.386Z,24.49
2023-06-19T19:42:10.374Z,24.49
2023-06-19T19:44:37.326Z,24.56
2023-06-19T19:47:04.562Z,24.49
2023-06-19T19:49:31.648Z,24.16
2023-06-19T19:51:58.499Z,23.99
2023-06-19T19:54:25.369Z,23.96
2023-06-19T19:56:52.256Z,24.21
2023-06-19T19:59:19.092Z,24.13
2023-06-19T20:01:46.020Z,23.95
2023-06-19T20:04:15.117Z,23.78
2023-06-19T20:06:44.363Z,23.96
2023-06-19T20:09:11.572Z,23.88
2023-06-19T20:11:39.178Z,23.80
2023-06-19T20:14:06.103Z,23.82
2023-06-19T20:16:34.348Z,23.75
2023-06-19T20:19:01.591Z,23.75
2023-06-19T20:21:31.848Z,23.51
2023-06-19T20:23:58.803Z,23.67
2023-06-19T20:26:25.675Z,23.50
2023-06-19T20:28:52.569Z,23.46
2023-06-19T20:31:19.502Z,23.28
2023-06-19T20:33:46.402Z,23.39
2023-06-19T20:36:13.394Z,23.41
2023-06-19T20:38:40.268Z,23.39
2023-06-19T20:41:07.255Z,23.15
2023-06-19T20:43:34.192Z,23.22
2023-06-19T20:46:01.872Z,23.01
2023-06-19T20:48:29.853Z,22.88
2023-06-19T20:50:57.737Z,22.90
2023-06-19T20:53:24.686Z,22.85
2023-06-19T20:55:51.617Z,22.41
2023-06-19T20:58:18.550Z,22.27
2023-06-19T21:00:46.513Z,22.55
2023-06-19T21:03:13.649Z,22.58
2023-06-19T21:05:40.739Z,22.54
2023-06-19T21:08:08.579Z,22.69
2023-06-19T21:10:35.523Z,22.72
2023-06-19T21:13:20.915Z,22.71
2023-06-19T21:15:50.521Z,22.60
2023-06-19T21:18:18.764Z,22.66
2023-06-19T21:20:45.728Z,22.58
2023-06-19T21:23:12.679Z,22.51
2023-06-19T21:25:40.408Z,22.52
2023-06-19T21:28:07.353Z,22.44
2023-06-19T21:30:34.243Z,22.44
2023-06-19T21:33:01.541Z,22.25
2023-06-19T21:35:28.788Z,22.26
2023-06-19T21:37:55.756Z,22.35
2023-06-19T21:40:23.845Z,22.31
2023-06-19T21:42:51.138Z,22.03
2023-06-19T21:45:18.093Z,22.05
2023-06-19T21:47:45.664Z,22.03
2023-06-19T21:50:14.424Z,22.04
2023-06-19T21:52:42.680Z,21.96
2023-06-19T21:55:10.009Z,21.91
2023-06-19T21:57:53.895Z,21.92
2023-06-19T22:00:26.325Z,21.87
2023-06-19T22:02:53.652Z,21.79
2023-06-19T22:05:20.700Z,21.81
2023-06-19T22:07:47.623Z,21.68
2023-06-19T22:10:14.526Z,21.41
2023-06-19T22:12:41.580Z,21.51
2023-06-19T22:15:08.951Z,21.51
2023-06-19T22:17:35.787Z,21.24
2023-06-19T22:20:04.318Z,20.95
2023-06-19T22:22:31.276Z,20.55
2023-06-19T22:24:58.099Z,20.87
2023-06-19T22:27:24.953Z,21.14
2023-06-19T22:29:51.847Z,21.23
2023-06-19T22:32:20.153Z,21.20
2023-06-19T22:34:47.287Z,20.69
2023-06-19T22:37:15.210Z,20.45
2023-06-19T22:39:43.746Z,20.22
2023-06-19T22:42:10.605Z,20.26
2023-06-19T22:44:37.751Z,20.03
2023-06-19T22:47:04.841Z,19.80
2023-06-19T22:49:31.761Z,19.76
2023-06-19T22:51:58.627Z,19.84
2023-06-19T22:54:25.595Z,19.78
2023-06-19T22:56:52.608Z,19.74
2023-06-19T22:59:19.526Z,19.79
2023-06-19T23:01:46.567Z,19.67
2023-06-19T23:04:13.508Z,19.78
2023-06-19T23:06:43.583Z,20.02
2023-06-19T23:09:12.201Z,20.23
2023-06-19T23:11:39.445Z,20.31
2023-06-19T23:14:07.017Z,20.41
2023-06-19T23:16:34.041Z,20.33
2023-06-19T23:19:01.129Z,20.52
2023-06-19T23:21:31.497Z,20.42
2023-06-19T23:23:59.628Z,20.43
2023-06-19T23:26:26.733Z,19.96
2023-06-19T23:28:54.721Z,19.80
2023-06-19T23:31:24.911Z,20.20
2023-06-19T23:33:52.729Z,20.31
2023-06-19T23:36:19.758Z,20.21
2023-06-19T23:38:49.130Z,20.27
2023-06-19T23:41:15.982Z,20.00
2023-06-19T23:43:42.793Z,20.05
2023-06-19T23:46:09.773Z,19.97
2023-06-19T23:48:36.667Z,20.11
2023-06-19T23:51:04.551Z,20.16
2023-06-19T23:53:31.619Z,20.23
2023-06-19T23:55:58.449Z,20.12
2023-06-19T23:58:25.562Z,20.04
